sensor_id;sensor_type;location;lat;lon;timestamp;P1;durP1;ratioP1;P2;durP2;ratioP2
63714;SDS011;49858;48.956;9.076;2022-11-20T00:00:51;41.80;;;13.25;;
63714;SDS011;49858;48.956;9.076;2022-11-20T00:03:21;34.92;;;11.63;;
63714;SDS011;49858;48.956;9.076;2022-11-20T00:05:49;47.08;;;14.70;;
63714;SDS011;49858;48.956;9.076;2022-11-20T00:08:17;46.08;;;13.65;;
63714;SDS011;49858;48.956;9.076;2022-11-20T00:10:44;45.15;;;13.82;;
63714;SDS011;49858;48.956;9.076;2022-11-20T00:13:12;58.47;;;15.68;;
63714;SDS011;49858;48.956;9.076;2022-11-20T00:15:40;48.13;;;13.50;;
63714;SDS011;49858;48.956;9.076;2022-11-20T00:18:07;46.83;;;16.80;;
63714;SDS011;49858;48.956;9.076;2022-11-20T00:20:37;62.78;;;16.17;;
63714;SDS011;49858;48.956;9.076;2022-11-20T00:23:04;47.25;;;13.10;;
63714;SDS011;49858;48.956;9.076;2022-11-20T00:25:33;46.33;;;13.48;;
63714;SDS011;49858;48.956;9.076;2022-11-20T00:28:01;46.83;;;13.10;;
63714;SDS011;49858;48.956;9.076;2022-11-20T00:30:28;50.97;;;13.77;;
63714;SDS011;49858;48.956;9.076;2022-11-20T00:32:56;42.80;;;13.82;;
63714;SDS011;49858;48.956;9.076;2022-11-20T00:35:24;43.05;;;12.77;;
63714;SDS011;49858;48.956;9.076;2022-11-20T00:37:53;43.53;;;14.07;;
63714;SDS011;49858;48.956;9.076;2022-11-20T00:40:21;49.15;;;14.90;;
63714;SDS011;49858;48.956;9.076;2022-11-20T00:42:48;48.00;;;13.88;;
63714;SDS011;49858;48.956;9.076;2022-11-20T00:45:16;52.78;;;15.20;;
63714;SDS011;49858;48.956;9.076;2022-11-20T00:47:44;51.97;;;14.50;;
63714;SDS011;49858;48.956;9.076;2022-11-20T00:50:12;56.38;;;15.23;;
63714;SDS011;49858;48.956;9.076;2022-11-20T00:52:40;51.65;;;14.70;;
63714;SDS011;49858;48.956;9.076;2022-11-20T00:55:09;39.05;;;14.43;;
63714;SDS011;49858;48.956;9.076;2022-11-20T00:57:37;45.80;;;17.02;;
63714;SDS011;49858;48.956;9.076;2022-11-20T01:00:05;46.10;;;16.70;;
63714;SDS011;49858;48.956;9.076;2022-11-20T01:02:34;57.78;;;15.38;;
63714;SDS011;49858;48.956;9.076;2022-11-20T01:05:02;43.50;;;15.65;;
63714;SDS011;49858;48.956;9.076;2022-11-20T01:07:29;46.25;;;13.88;;
63714;SDS011;49858;48.956;9.076;2022-11-20T01:09:57;47.53;;;13.88;;
63714;SDS011;49858;48.956;9.076;2022-11-20T01:12:26;40.15;;;12.90;;
63714;SDS011;49858;48.956;9.076;2022-11-20T01:14:54;44.25;;;12.10;;
63714;SDS011;49858;48.956;9.076;2022-11-20T01:17:22;44.38;;;13.13;;
63714;SDS011;49858;48.956;9.076;2022-11-20T01:19:50;46.08;;;14.85;;
63714;SDS011;49858;48.956;9.076;2022-11-20T01:22:17;35.85;;;13.23;;
63714;SDS011;49858;48.956;9.076;2022-11-20T01:24:45;35.90;;;13.35;;
63714;SDS011;49858;48.956;9.076;2022-11-20T01:27:13;33.95;;;11.65;;
63714;SDS011;49858;48.956;9.076;2022-11-20T01:29:42;32.25;;;11.77;;
63714;SDS011;49858;48.956;9.076;2022-11-20T01:32:10;31.77;;;12.30;;
63714;SDS011;49858;48.956;9.076;2022-11-20T01:34:37;26.00;;;10.23;;
63714;SDS011;49858;48.956;9.076;2022-11-20T01:37:05;26.95;;;10.75;;
63714;SDS011;49858;48.956;9.076;2022-11-20T01:39:33;29.85;;;10.63;;
63714;SDS011;49858;48.956;9.076;2022-11-20T01:42:01;29.17;;;11.90;;
63714;SDS011;49858;48.956;9.076;2022-11-20T01:44:49;27.63;;;10.20;;
63714;SDS011;49858;48.956;9.076;2022-11-20T01:47:24;29.63;;;11.70;;
63714;SDS011;49858;48.956;9.076;2022-11-20T01:49:58;29.52;;;11.80;;
63714;SDS011;49858;48.956;9.076;2022-11-20T01:52:30;24.20;;;9.45;;
63714;SDS011;49858;48.956;9.076;2022-11-20T01:55:03;29.38;;;11.95;;
63714;SDS011;49858;48.956;9.076;2022-11-20T01:57:34;33.25;;;11.77;;
63714;SDS011;49858;48.956;9.076;2022-11-20T02:00:05;28.80;;;12.05;;
63714;SDS011;49858;48.956;9.076;2022-11-20T02:02:39;37.05;;;13.02;;
63714;SDS011;49858;48.956;9.076;2022-11-20T02:05:12;31.23;;;12.00;;
63714;SDS011;49858;48.956;9.076;2022-11-20T02:07:46;31.08;;;12.43;;
63714;SDS011;49858;48.956;9.076;2022-11-20T02:10:14;39.08;;;14.77;;
63714;SDS011;49858;48.956;9.076;2022-11-20T02:12:42;34.80;;;12.52;;
63714;SDS011;49858;48.956;9.076;2022-11-20T02:15:29;31.73;;;11.95;;
63714;SDS011;49858;48.956;9.076;2022-11-20T02:17:57;33.45;;;12.75;;
63714;SDS011;49858;48.956;9.076;2022-11-20T02:20:25;35.60;;;12.75;;
63714;SDS011;49858;48.956;9.076;2022-11-20T02:22:54;31.92;;;12.75;;
63714;SDS011;49858;48.956;9.076;2022-11-20T02:25:26;25.55;;;10.25;;
63714;SDS011;49858;48.956;9.076;2022-11-20T02:27:56;38.60;;;15.40;;
63714;SDS011;49858;48.956;9.076;2022-11-20T02:30:24;27.55;;;12.15;;
63714;SDS011;49858;48.956;9.076;2022-11-20T02:32:52;30.67;;;12.15;;
63714;SDS011;49858;48.956;9.076;2022-11-20T02:35:39;29.15;;;11.35;;
63714;SDS011;49858;48.956;9.076;2022-11-20T02:38:09;29.65;;;10.90;;
63714;SDS011;49858;48.956;9.076;2022-11-20T02:40:38;31.20;;;12.77;;
63714;SDS011;49858;48.956;9.076;2022-11-20T02:43:06;29.02;;;11.00;;
63714;SDS011;49858;48.956;9.076;2022-11-20T02:45:35;30.35;;;11.07;;
63714;SDS011;49858;48.956;9.076;2022-11-20T02:48:03;29.13;;;11.38;;
63714;SDS011;49858;48.956;9.076;2022-11-20T02:50:35;33.00;;;12.80;;
63714;SDS011;49858;48.956;9.076;2022-11-20T02:53:04;33.10;;;12.55;;
63714;SDS011;49858;48.956;9.076;2022-11-20T02:55:33;26.15;;;10.30;;
63714;SDS011;49858;48.956;9.076;2022-11-20T02:58:02;24.40;;;11.43;;
63714;SDS011;49858;48.956;9.076;2022-11-20T03:00:30;23.63;;;8.98;;
63714;SDS011;49858;48.956;9.076;2022-11-20T03:02:58;20.20;;;9.75;;
63714;SDS011;49858;48.956;9.076;2022-11-20T03:05:25;14.70;;;8.40;;
63714;SDS011;49858;48.956;9.076;2022-11-20T03:07:53;16.67;;;8.15;;
63714;SDS011;49858;48.956;9.076;2022-11-20T03:10:21;17.00;;;8.27;;
63714;SDS011;49858;48.956;9.076;2022-11-20T03:12:52;24.08;;;9.65;;
63714;SDS011;49858;48.956;9.076;2022-11-20T03:15:22;22.42;;;10.90;;
63714;SDS011;49858;48.956;9.076;2022-11-20T03:17:52;27.67;;;10.68;;
63714;SDS011;49858;48.956;9.076;2022-11-20T03:20:21;27.80;;;10.60;;
63714;SDS011;49858;48.956;9.076;2022-11-20T03:22:49;31.95;;;12.02;;
63714;SDS011;49858;48.956;9.076;2022-11-20T03:25:17;29.17;;;11.07;;
63714;SDS011;49858;48.956;9.076;2022-11-20T03:27:45;32.95;;;11.07;;
63714;SDS011;49858;48.956;9.076;2022-11-20T03:30:13;28.13;;;10.93;;
63714;SDS011;49858;48.956;9.076;2022-11-20T03:32:43;30.95;;;12.68;;
63714;SDS011;49858;48.956;9.076;2022-11-20T03:35:11;25.10;;;9.63;;
63714;SDS011;49858;48.956;9.076;2022-11-20T03:37:39;22.20;;;8.60;;
63714;SDS011;49858;48.956;9.076;2022-11-20T03:40:07;22.02;;;8.73;;
63714;SDS011;49858;48.956;9.076;2022-11-20T03:42:35;16.25;;;5.97;;
63714;SDS011;49858;48.956;9.076;2022-11-20T03:45:12;13.40;;;7.25;;
63714;SDS011;49858;48.956;9.076;2022-11-20T03:47:40;12.00;;;6.25;;
63714;SDS011;49858;48.956;9.076;2022-11-20T03:50:11;17.00;;;7.47;;
63714;SDS011;49858;48.956;9.076;2022-11-20T03:52:40;13.30;;;6.97;;
63714;SDS011;49858;48.956;9.076;2022-11-20T03:55:08;15.77;;;7.40;;
63714;SDS011;49858;48.956;9.076;2022-11-20T03:57:36;13.35;;;6.68;;
63714;SDS011;49858;48.956;9.076;2022-11-20T04:00:04;12.02;;;5.88;;
63714;SDS011;49858;48.956;9.076;2022-11-20T04:02:33;12.45;;;6.20;;
63714;SDS011;49858;48.956;9.076;2022-11-20T04:05:00;11.77;;;6.32;;
63714;SDS011;49858;48.956;9.076;2022-11-20T04:07:29;12.68;;;5.70;;
63714;SDS011;49858;48.956;9.076;2022-11-20T04:09:57;10.38;;;5.03;;
63714;SDS011;49858;48.956;9.076;2022-11-20T04:12:25;7.78;;;4.10;;
63714;SDS011;49858;48.956;9.076;2022-11-20T04:14:53;13.35;;;4.57;;
63714;SDS011;49858;48.956;9.076;2022-11-20T04:17:21;8.73;;;4.40;;
63714;SDS011;49858;48.956;9.076;2022-11-20T04:19:48;7.85;;;4.38;;
63714;SDS011;49858;48.956;9.076;2022-11-20T04:22:16;10.80;;;5.35;;
63714;SDS011;49858;48.956;9.076;2022-11-20T04:24:45;11.98;;;5.30;;
63714;SDS011;49858;48.956;9.076;2022-11-20T04:27:13;5.63;;;3.03;;
63714;SDS011;49858;48.956;9.076;2022-11-20T04:29:41;3.83;;;2.03;;
63714;SDS011;49858;48.956;9.076;2022-11-20T04:32:09;5.88;;;2.83;;
63714;SDS011;49858;48.956;9.076;2022-11-20T04:34:36;5.13;;;3.05;;
63714;SDS011;49858;48.956;9.076;2022-11-20T04:37:04;3.88;;;3.22;;
63714;SDS011;49858;48.956;9.076;2022-11-20T04:39:32;2.65;;;1.90;;
63714;SDS011;49858;48.956;9.076;2022-11-20T04:42:01;4.95;;;3.05;;
63714;SDS011;49858;48.956;9.076;2022-11-20T04:44:48;4.30;;;3.17;;
63714;SDS011;49858;48.956;9.076;2022-11-20T04:47:16;6.13;;;3.65;;
63714;SDS011;49858;48.956;9.076;2022-11-20T04:49:44;7.38;;;4.25;;
63714;SDS011;49858;48.956;9.076;2022-11-20T04:52:12;4.38;;;3.00;;
63714;SDS011;49858;48.956;9.076;2022-11-20T04:54:40;4.93;;;3.35;;
63714;SDS011;49858;48.956;9.076;2022-11-20T04:57:09;8.52;;;4.25;;
63714;SDS011;49858;48.956;9.076;2022-11-20T04:59:40;6.70;;;3.65;;
63714;SDS011;49858;48.956;9.076;2022-11-20T05:02:08;7.82;;;4.35;;
63714;SDS011;49858;48.956;9.076;2022-11-20T05:04:37;6.20;;;3.50;;
63714;SDS011;49858;48.956;9.076;2022-11-20T05:07:04;5.80;;;3.50;;
63714;SDS011;49858;48.956;9.076;2022-11-20T05:09:32;6.10;;;2.95;;
63714;SDS011;49858;48.956;9.076;2022-11-20T05:12:00;7.43;;;3.25;;
63714;SDS011;49858;48.956;9.076;2022-11-20T05:14:29;3.47;;;2.22;;
63714;SDS011;49858;48.956;9.076;2022-11-20T05:16:57;5.00;;;2.92;;
63714;SDS011;49858;48.956;9.076;2022-11-20T05:19:25;3.40;;;2.30;;
63714;SDS011;49858;48.956;9.076;2022-11-20T05:21:53;3.95;;;2.65;;
63714;SDS011;49858;48.956;9.076;2022-11-20T05:24:20;8.38;;;3.20;;
63714;SDS011;49858;48.956;9.076;2022-11-20T05:26:48;2.75;;;2.22;;
63714;SDS011;49858;48.956;9.076;2022-11-20T05:29:16;5.68;;;3.08;;
63714;SDS011;49858;48.956;9.076;2022-11-20T05:31:45;4.32;;;1.92;;
63714;SDS011;49858;48.956;9.076;2022-11-20T05:34:13;3.42;;;2.40;;
63714;SDS011;49858;48.956;9.076;2022-11-20T05:36:41;3.20;;;1.77;;
63714;SDS011;49858;48.956;9.076;2022-11-20T05:39:09;2.45;;;1.73;;
63714;SDS011;49858;48.956;9.076;2022-11-20T05:41:37;7.85;;;4.60;;
63714;SDS011;49858;48.956;9.076;2022-11-20T05:44:04;6.60;;;4.00;;
63714;SDS011;49858;48.956;9.076;2022-11-20T05:46:32;8.93;;;4.60;;
63714;SDS011;49858;48.956;9.076;2022-11-20T05:49:01;9.13;;;4.88;;
63714;SDS011;49858;48.956;9.076;2022-11-20T05:51:29;6.10;;;3.60;;
63714;SDS011;49858;48.956;9.076;2022-11-20T05:53:57;8.20;;;3.95;;
63714;SDS011;49858;48.956;9.076;2022-11-20T05:56:25;8.18;;;4.00;;
63714;SDS011;49858;48.956;9.076;2022-11-20T05:58:52;6.57;;;3.80;;
63714;SDS011;49858;48.956;9.076;2022-11-20T06:01:21;10.65;;;4.65;;
63714;SDS011;49858;48.956;9.076;2022-11-20T06:03:50;7.93;;;4.65;;
63714;SDS011;49858;48.956;9.076;2022-11-20T06:06:20;7.13;;;4.30;;
63714;SDS011;49858;48.956;9.076;2022-11-20T06:08:50;8.13;;;4.47;;
63714;SDS011;49858;48.956;9.076;2022-11-20T06:11:18;9.55;;;4.00;;
63714;SDS011;49858;48.956;9.076;2022-11-20T06:13:46;7.35;;;3.90;;
63714;SDS011;49858;48.956;9.076;2022-11-20T06:16:15;5.93;;;3.45;;
63714;SDS011;49858;48.956;9.076;2022-11-20T06:18:45;6.80;;;3.58;;
63714;SDS011;49858;48.956;9.076;2022-11-20T06:21:14;8.32;;;3.33;;
63714;SDS011;49858;48.956;9.076;2022-11-20T06:23:45;2.25;;;1.38;;
63714;SDS011;49858;48.956;9.076;2022-11-20T06:26:14;2.92;;;2.10;;
63714;SDS011;49858;48.956;9.076;2022-11-20T06:28:44;3.55;;;1.73;;
63714;SDS011;49858;48.956;9.076;2022-11-20T06:31:13;5.65;;;2.50;;
63714;SDS011;49858;48.956;9.076;2022-11-20T06:33:42;1.38;;;1.25;;
63714;SDS011;49858;48.956;9.076;2022-11-20T06:36:11;5.00;;;2.55;;
63714;SDS011;49858;48.956;9.076;2022-11-20T06:38:40;2.38;;;1.50;;
63714;SDS011;49858;48.956;9.076;2022-11-20T06:41:10;2.78;;;1.95;;
63714;SDS011;49858;48.956;9.076;2022-11-20T06:43:39;2.58;;;1.35;;
63714;SDS011;49858;48.956;9.076;2022-11-20T06:46:08;3.08;;;2.05;;
63714;SDS011;49858;48.956;9.076;2022-11-20T06:48:36;4.35;;;2.38;;
63714;SDS011;49858;48.956;9.076;2022-11-20T06:51:04;4.90;;;3.25;;
63714;SDS011;49858;48.956;9.076;2022-11-20T06:53:33;5.38;;;3.00;;
63714;SDS011;49858;48.956;9.076;2022-11-20T06:56:02;5.25;;;3.08;;
63714;SDS011;49858;48.956;9.076;2022-11-20T06:58:32;6.65;;;3.22;;
63714;SDS011;49858;48.956;9.076;2022-11-20T07:01:01;5.32;;;3.17;;
63714;SDS011;49858;48.956;9.076;2022-11-20T07:03:30;4.50;;;2.83;;
63714;SDS011;49858;48.956;9.076;2022-11-20T07:05:58;6.15;;;3.50;;
63714;SDS011;49858;48.956;9.076;2022-11-20T07:08:28;6.43;;;3.92;;
63714;SDS011;49858;48.956;9.076;2022-11-20T07:10:57;5.13;;;3.30;;
63714;SDS011;49858;48.956;9.076;2022-11-20T07:13:25;6.00;;;3.83;;
63714;SDS011;49858;48.956;9.076;2022-11-20T07:15:54;5.40;;;3.13;;
63714;SDS011;49858;48.956;9.076;2022-11-20T07:18:22;2.10;;;1.73;;
63714;SDS011;49858;48.956;9.076;2022-11-20T07:20:50;2.38;;;1.27;;
63714;SDS011;49858;48.956;9.076;2022-11-20T07:23:17;9.45;;;2.20;;
63714;SDS011;49858;48.956;9.076;2022-11-20T07:25:45;2.53;;;1.30;;
63714;SDS011;49858;48.956;9.076;2022-11-20T07:28:13;1.30;;;1.20;;
63714;SDS011;49858;48.956;9.076;2022-11-20T07:30:41;2.75;;;1.75;;
63714;SDS011;49858;48.956;9.076;2022-11-20T07:33:10;6.40;;;3.33;;
63714;SDS011;49858;48.956;9.076;2022-11-20T07:35:38;2.85;;;1.58;;
63714;SDS011;49858;48.956;9.076;2022-11-20T07:38:07;2.35;;;1.70;;
63714;SDS011;49858;48.956;9.076;2022-11-20T07:40:39;2.25;;;1.33;;
63714;SDS011;49858;48.956;9.076;2022-11-20T07:43:07;3.33;;;1.80;;
63714;SDS011;49858;48.956;9.076;2022-11-20T07:45:34;1.65;;;1.27;;
63714;SDS011;49858;48.956;9.076;2022-11-20T07:48:02;2.53;;;1.35;;
63714;SDS011;49858;48.956;9.076;2022-11-20T07:50:32;3.95;;;1.67;;
63714;SDS011;49858;48.956;9.076;2022-11-20T07:53:00;3.30;;;2.08;;
63714;SDS011;49858;48.956;9.076;2022-11-20T07:55:30;1.98;;;1.30;;
63714;SDS011;49858;48.956;9.076;2022-11-20T07:57:58;7.05;;;1.48;;
63714;SDS011;49858;48.956;9.076;2022-11-20T08:00:26;1.67;;;1.20;;
63714;SDS011;49858;48.956;9.076;2022-11-20T08:02:54;1.60;;;1.00;;
63714;SDS011;49858;48.956;9.076;2022-11-20T08:05:22;1.75;;;1.35;;
63714;SDS011;49858;48.956;9.076;2022-11-20T08:07:51;0.60;;;0.60;;
63714;SDS011;49858;48.956;9.076;2022-11-20T08:10:19;1.00;;;0.90;;
63714;SDS011;49858;48.956;9.076;2022-11-20T08:12:47;0.90;;;0.75;;
63714;SDS011;49858;48.956;9.076;2022-11-20T08:15:34;1.15;;;1.05;;
63714;SDS011;49858;48.956;9.076;2022-11-20T08:18:02;0.93;;;0.93;;
63714;SDS011;49858;48.956;9.076;2022-11-20T08:20:51;2.53;;;0.90;;
63714;SDS011;49858;48.956;9.076;2022-11-20T08:23:22;2.40;;;1.55;;
63714;SDS011;49858;48.956;9.076;2022-11-20T08:25:50;2.45;;;1.50;;
63714;SDS011;49858;48.956;9.076;2022-11-20T08:28:18;2.85;;;1.80;;
63714;SDS011;49858;48.956;9.076;2022-11-20T08:30:48;8.05;;;2.08;;
63714;SDS011;49858;48.956;9.076;2022-11-20T08:33:17;2.60;;;1.38;;
63714;SDS011;49858;48.956;9.076;2022-11-20T08:35:45;3.90;;;2.08;;
63714;SDS011;49858;48.956;9.076;2022-11-20T08:38:13;1.10;;;1.00;;
63714;SDS011;49858;48.956;9.076;2022-11-20T08:40:42;2.22;;;1.52;;
63714;SDS011;49858;48.956;9.076;2022-11-20T08:43:31;1.90;;;1.70;;
63714;SDS011;49858;48.956;9.076;2022-11-20T08:45:59;2.70;;;1.92;;
63714;SDS011;49858;48.956;9.076;2022-11-20T08:48:27;3.30;;;1.75;;
63714;SDS011;49858;48.956;9.076;2022-11-20T08:50:57;1.58;;;1.38;;
63714;SDS011;49858;48.956;9.076;2022-11-20T08:53:25;2.55;;;2.05;;
63714;SDS011;49858;48.956;9.076;2022-11-20T08:55:54;0.95;;;0.90;;
63714;SDS011;49858;48.956;9.076;2022-11-20T08:58:24;1.55;;;1.35;;
63714;SDS011;49858;48.956;9.076;2022-11-20T09:00:52;2.15;;;1.55;;
63714;SDS011;49858;48.956;9.076;2022-11-20T09:03:20;2.13;;;1.55;;
63714;SDS011;49858;48.956;9.076;2022-11-20T09:05:48;1.52;;;1.20;;
63714;SDS011;49858;48.956;9.076;2022-11-20T09:08:16;1.45;;;1.35;;
63714;SDS011;49858;48.956;9.076;2022-11-20T09:10:44;2.03;;;1.20;;
63714;SDS011;49858;48.956;9.076;2022-11-20T09:13:14;1.25;;;1.10;;
63714;SDS011;49858;48.956;9.076;2022-11-20T09:15:42;5.38;;;2.58;;
63714;SDS011;49858;48.956;9.076;2022-11-20T09:18:09;1.95;;;1.50;;
63714;SDS011;49858;48.956;9.076;2022-11-20T09:20:37;2.10;;;1.25;;
63714;SDS011;49858;48.956;9.076;2022-11-20T09:23:05;2.17;;;1.42;;
63714;SDS011;49858;48.956;9.076;2022-11-20T09:25:33;2.33;;;1.60;;
63714;SDS011;49858;48.956;9.076;2022-11-20T09:28:00;1.50;;;1.13;;
63714;SDS011;49858;48.956;9.076;2022-11-20T09:30:30;2.05;;;1.40;;
63714;SDS011;49858;48.956;9.076;2022-11-20T09:32:58;3.08;;;1.98;;
63714;SDS011;49858;48.956;9.076;2022-11-20T09:35:25;1.92;;;1.70;;
63714;SDS011;49858;48.956;9.076;2022-11-20T09:37:54;5.45;;;2.30;;
63714;SDS011;49858;48.956;9.076;2022-11-20T09:40:22;2.42;;;1.38;;
63714;SDS011;49858;48.956;9.076;2022-11-20T09:42:53;5.28;;;3.45;;
63714;SDS011;49858;48.956;9.076;2022-11-20T09:45:28;12.18;;;3.97;;
63714;SDS011;49858;48.956;9.076;2022-11-20T09:48:14;4.65;;;3.35;;
63714;SDS011;49858;48.956;9.076;2022-11-20T09:50:53;5.38;;;4.07;;
63714;SDS011;49858;48.956;9.076;2022-11-20T09:53:28;6.63;;;4.18;;
63714;SDS011;49858;48.956;9.076;2022-11-20T09:56:02;7.10;;;3.65;;
63714;SDS011;49858;48.956;9.076;2022-11-20T09:58:32;5.60;;;4.40;;
63714;SDS011;49858;48.956;9.076;2022-11-20T10:01:09;5.95;;;3.67;;
63714;SDS011;49858;48.956;9.076;2022-11-20T10:03:41;5.90;;;3.53;;
63714;SDS011;49858;48.956;9.076;2022-11-20T10:06:18;4.72;;;3.65;;
63714;SDS011;49858;48.956;9.076;2022-11-20T10:08:51;4.93;;;3.67;;
63714;SDS011;49858;48.956;9.076;2022-11-20T10:11:28;3.72;;;2.30;;
63714;SDS011;49858;48.956;9.076;2022-11-20T10:14:09;5.18;;;3.70;;
63714;SDS011;49858;48.956;9.076;2022-11-20T10:16:50;9.40;;;4.20;;
63714;SDS011;49858;48.956;9.076;2022-11-20T10:19:30;6.97;;;4.65;;
63714;SDS011;49858;48.956;9.076;2022-11-20T10:22:11;4.55;;;3.42;;
63714;SDS011;49858;48.956;9.076;2022-11-20T10:24:52;5.85;;;4.00;;
63714;SDS011;49858;48.956;9.076;2022-11-20T10:30:07;4.20;;;2.75;;
63714;SDS011;49858;48.956;9.076;2022-11-20T10:32:40;4.50;;;2.50;;
63714;SDS011;49858;48.956;9.076;2022-11-20T10:35:14;4.35;;;2.65;;
63714;SDS011;49858;48.956;9.076;2022-11-20T10:37:48;3.67;;;2.55;;
63714;SDS011;49858;48.956;9.076;2022-11-20T10:40:22;4.30;;;2.92;;
63714;SDS011;49858;48.956;9.076;2022-11-20T10:42:55;3.55;;;2.60;;
63714;SDS011;49858;48.956;9.076;2022-11-20T10:45:35;5.13;;;2.55;;
63714;SDS011;49858;48.956;9.076;2022-11-20T10:48:10;4.00;;;2.20;;
63714;SDS011;49858;48.956;9.076;2022-11-20T10:50:49;5.85;;;3.45;;
63714;SDS011;49858;48.956;9.076;2022-11-20T10:53:31;3.47;;;2.28;;
63714;SDS011;49858;48.956;9.076;2022-11-20T10:56:13;5.25;;;3.30;;
63714;SDS011;49858;48.956;9.076;2022-11-20T10:58:49;5.05;;;3.05;;
63714;SDS011;49858;48.956;9.076;2022-11-20T11:01:39;7.65;;;4.45;;
63714;SDS011;49858;48.956;9.076;2022-11-20T11:04:14;6.78;;;4.18;;
63714;SDS011;49858;48.956;9.076;2022-11-20T11:06:54;3.55;;;2.80;;
63714;SDS011;49858;48.956;9.076;2022-11-20T11:09:28;10.65;;;4.30;;
63714;SDS011;49858;48.956;9.076;2022-11-20T11:14:41;7.60;;;3.08;;
63714;SDS011;49858;48.956;9.076;2022-11-20T11:17:18;5.25;;;3.17;;
63714;SDS011;49858;48.956;9.076;2022-11-20T11:20:06;10.93;;;5.28;;
63714;SDS011;49858;48.956;9.076;2022-11-20T11:22:44;7.13;;;4.47;;
63714;SDS011;49858;48.956;9.076;2022-11-20T11:25:21;7.20;;;4.63;;
63714;SDS011;49858;48.956;9.076;2022-11-20T11:27:51;7.57;;;4.68;;
63714;SDS011;49858;48.956;9.076;2022-11-20T11:30:21;5.82;;;3.33;;
63714;SDS011;49858;48.956;9.076;2022-11-20T11:32:50;4.97;;;3.78;;
63714;SDS011;49858;48.956;9.076;2022-11-20T11:35:20;4.38;;;2.88;;
63714;SDS011;49858;48.956;9.076;2022-11-20T11:37:50;5.60;;;3.92;;
63714;SDS011;49858;48.956;9.076;2022-11-20T11:40:20;5.05;;;2.75;;
63714;SDS011;49858;48.956;9.076;2022-11-20T11:42:52;4.75;;;3.25;;
63714;SDS011;49858;48.956;9.076;2022-11-20T11:45:24;6.00;;;3.17;;
63714;SDS011;49858;48.956;9.076;2022-11-20T11:47:52;4.05;;;2.80;;
63714;SDS011;49858;48.956;9.076;2022-11-20T11:50:23;5.60;;;2.78;;
63714;SDS011;49858;48.956;9.076;2022-11-20T11:53:02;5.15;;;2.70;;
63714;SDS011;49858;48.956;9.076;2022-11-20T11:55:36;8.40;;;1.90;;
63714;SDS011;49858;48.956;9.076;2022-11-20T11:58:15;5.72;;;2.72;;
63714;SDS011;49858;48.956;9.076;2022-11-20T12:01:02;4.65;;;2.30;;
63714;SDS011;49858;48.956;9.076;2022-11-20T12:03:35;5.50;;;2.70;;
63714;SDS011;49858;48.956;9.076;2022-11-20T12:06:10;4.25;;;2.22;;
63714;SDS011;49858;48.956;9.076;2022-11-20T12:08:42;5.10;;;2.40;;
63714;SDS011;49858;48.956;9.076;2022-11-20T12:11:18;3.35;;;2.38;;
63714;SDS011;49858;48.956;9.076;2022-11-20T12:13:50;9.15;;;5.15;;
63714;SDS011;49858;48.956;9.076;2022-11-20T12:16:23;10.63;;;4.65;;
63714;SDS011;49858;48.956;9.076;2022-11-20T12:18:52;3.72;;;2.38;;
63714;SDS011;49858;48.956;9.076;2022-11-20T12:21:24;4.25;;;1.88;;
63714;SDS011;49858;48.956;9.076;2022-11-20T12:24:02;2.17;;;1.20;;
63714;SDS011;49858;48.956;9.076;2022-11-20T12:26:53;1.98;;;1.38;;
63714;SDS011;49858;48.956;9.076;2022-11-20T12:29:32;1.77;;;1.20;;
63714;SDS011;49858;48.956;9.076;2022-11-20T12:32:23;4.35;;;1.63;;
63714;SDS011;49858;48.956;9.076;2022-11-20T12:35:07;2.55;;;1.58;;
63714;SDS011;49858;48.956;9.076;2022-11-20T12:37:52;2.67;;;1.20;;
63714;SDS011;49858;48.956;9.076;2022-11-20T12:40:35;4.97;;;1.75;;
63714;SDS011;49858;48.956;9.076;2022-11-20T12:43:13;3.88;;;1.50;;
63714;SDS011;49858;48.956;9.076;2022-11-20T12:46:07;4.35;;;1.80;;
63714;SDS011;49858;48.956;9.076;2022-11-20T12:48:48;2.33;;;1.35;;
63714;SDS011;49858;48.956;9.076;2022-11-20T12:51:30;3.60;;;1.45;;
63714;SDS011;49858;48.956;9.076;2022-11-20T12:54:19;3.65;;;1.90;;
63714;SDS011;49858;48.956;9.076;2022-11-20T12:56:57;4.43;;;2.08;;
63714;SDS011;49858;48.956;9.076;2022-11-20T12:59:46;1.90;;;1.25;;
63714;SDS011;49858;48.956;9.076;2022-11-20T13:02:25;2.25;;;1.63;;
63714;SDS011;49858;48.956;9.076;2022-11-20T13:05:12;3.23;;;1.77;;
63714;SDS011;49858;48.956;9.076;2022-11-20T13:07:47;3.17;;;1.15;;
63714;SDS011;49858;48.956;9.076;2022-11-20T13:10:21;5.00;;;2.03;;
63714;SDS011;49858;48.956;9.076;2022-11-20T13:12:55;1.67;;;1.35;;
63714;SDS011;49858;48.956;9.076;2022-11-20T13:15:33;3.85;;;1.92;;
63714;SDS011;49858;48.956;9.076;2022-11-20T13:18:11;3.22;;;1.30;;
63714;SDS011;49858;48.956;9.076;2022-11-20T13:20:41;3.00;;;0.82;;
63714;SDS011;49858;48.956;9.076;2022-11-20T13:23:22;2.50;;;1.40;;
63714;SDS011;49858;48.956;9.076;2022-11-20T13:26:01;2.22;;;1.30;;
63714;SDS011;49858;48.956;9.076;2022-11-20T13:28:31;5.75;;;1.42;;
63714;SDS011;49858;48.956;9.076;2022-11-20T13:30:59;2.22;;;1.00;;
63714;SDS011;49858;48.956;9.076;2022-11-20T13:33:28;2.22;;;1.30;;
63714;SDS011;49858;48.956;9.076;2022-11-20T13:35:59;4.07;;;1.90;;
63714;SDS011;49858;48.956;9.076;2022-11-20T13:38:28;4.53;;;1.25;;
63714;SDS011;49858;48.956;9.076;2022-11-20T13:41:09;2.97;;;1.88;;
63714;SDS011;49858;48.956;9.076;2022-11-20T13:43:51;2.05;;;1.40;;
63714;SDS011;49858;48.956;9.076;2022-11-20T13:46:19;3.13;;;1.65;;
63714;SDS011;49858;48.956;9.076;2022-11-20T13:48:50;2.92;;;2.00;;
63714;SDS011;49858;48.956;9.076;2022-11-20T13:51:24;7.90;;;1.77;;
63714;SDS011;49858;48.956;9.076;2022-11-20T13:54:06;4.18;;;1.20;;
63714;SDS011;49858;48.956;9.076;2022-11-20T13:56:50;4.43;;;1.63;;
63714;SDS011;49858;48.956;9.076;2022-11-20T13:59:29;1.75;;;1.40;;
63714;SDS011;49858;48.956;9.076;2022-11-20T14:02:11;2.60;;;1.00;;
63714;SDS011;49858;48.956;9.076;2022-11-20T14:04:42;4.95;;;1.17;;
63714;SDS011;49858;48.956;9.076;2022-11-20T14:07:12;2.13;;;1.60;;
63714;SDS011;49858;48.956;9.076;2022-11-20T14:09:48;3.00;;;1.40;;
63714;SDS011;49858;48.956;9.076;2022-11-20T14:12:20;7.50;;;1.23;;
63714;SDS011;49858;48.956;9.076;2022-11-20T14:14:50;1.05;;;0.75;;
63714;SDS011;49858;48.956;9.076;2022-11-20T14:17:20;1.85;;;1.10;;
63714;SDS011;49858;48.956;9.076;2022-11-20T14:19:50;3.13;;;1.17;;
63714;SDS011;49858;48.956;9.076;2022-11-20T14:22:20;6.75;;;4.18;;
63714;SDS011;49858;48.956;9.076;2022-11-20T14:25:00;2.70;;;1.15;;
63714;SDS011;49858;48.956;9.076;2022-11-20T14:27:32;2.70;;;1.13;;
63714;SDS011;49858;48.956;9.076;2022-11-20T14:30:02;1.05;;;0.80;;
63714;SDS011;49858;48.956;9.076;2022-11-20T14:32:30;2.80;;;1.70;;
63714;SDS011;49858;48.956;9.076;2022-11-20T14:35:01;2.38;;;1.15;;
63714;SDS011;49858;48.956;9.076;2022-11-20T14:37:36;2.30;;;1.13;;
63714;SDS011;49858;48.956;9.076;2022-11-20T14:40:20;2.92;;;1.13;;
63714;SDS011;49858;48.956;9.076;2022-11-20T14:42:52;2.83;;;1.35;;
63714;SDS011;49858;48.956;9.076;2022-11-20T14:45:20;1.42;;;1.15;;
63714;SDS011;49858;48.956;9.076;2022-11-20T14:47:50;3.75;;;1.40;;
63714;SDS011;49858;48.956;9.076;2022-11-20T14:50:20;3.40;;;1.30;;
63714;SDS011;49858;48.956;9.076;2022-11-20T14:52:51;2.03;;;1.00;;
63714;SDS011;49858;48.956;9.076;2022-11-20T14:55:30;2.40;;;1.23;;
63714;SDS011;49858;48.956;9.076;2022-11-20T14:58:01;4.82;;;1.30;;
63714;SDS011;49858;48.956;9.076;2022-11-20T15:00:31;2.47;;;1.15;;
63714;SDS011;49858;48.956;9.076;2022-11-20T15:03:00;2.83;;;1.27;;
63714;SDS011;49858;48.956;9.076;2022-11-20T15:05:43;1.40;;;0.95;;
63714;SDS011;49858;48.956;9.076;2022-11-20T15:08:13;1.52;;;1.10;;
63714;SDS011;49858;48.956;9.076;2022-11-20T15:10:45;1.40;;;0.88;;